sensor_id;sensor_type;location;lat;lon;timestamp;pressure;altitude;pressure_sealevel;temperature;humidity
46714;BME280;32445;51.376;10.874;2024-02-23T00:00:07;96571.41;;;10.52;59.51
46714;BME280;32445;51.376;10.874;2024-02-23T00:05:08;96584.19;;;10.42;59.16
46714;BME280;32445;51.376;10.874;2024-02-23T00:10:08;96606.41;;;10.33;58.54
46714;BME280;32445;51.376;10.874;2024-02-23T00:15:09;96614.50;;;10.29;59.19
46714;BME280;32445;51.376;10.874;2024-02-23T00:20:10;96613.94;;;10.12;57.53
46714;BME280;32445;51.376;10.874;2024-02-23T00:25:15;96640.88;;;10.10;57.65
46714;BME280;32445;51.376;10.874;2024-02-23T00:30:15;96624.97;;;10.03;56.28
46714;BME280;32445;51.376;10.874;2024-02-23T00:35:16;96651.28;;;9.97;56.67
46714;BME280;32445;51.376;10.874;2024-02-23T00:40:16;96664.56;;;9.92;56.26
46714;BME280;32445;51.376;10.874;2024-02-23T00:45:17;96679.50;;;9.89;56.27
46714;BME280;32445;51.376;10.874;2024-02-23T00:50:17;96682.38;;;9.84;54.95
46714;BME280;32445;51.376;10.874;2024-02-23T00:55:18;96698.88;;;9.70;55.29
46714;BME280;32445;51.376;10.874;2024-02-23T01:00:19;96710.50;;;9.64;55.32
46714;BME280;32445;51.376;10.874;2024-02-23T01:05:19;96713.06;;;9.64;56.50
46714;BME280;32445;51.376;10.874;2024-02-23T01:10:19;96714.09;;;9.49;54.90
46714;BME280;32445;51.376;10.874;2024-02-23T01:15:20;96707.34;;;9.46;56.04
46714;BME280;32445;51.376;10.874;2024-02-23T01:20:20;96727.34;;;9.44;56.47
46714;BME280;32445;51.376;10.874;2024-02-23T01:25:21;96774.22;;;9.40;55.39
46714;BME280;32445;51.376;10.874;2024-02-23T01:30:21;96785.09;;;9.32;55.29
46714;BME280;32445;51.376;10.874;2024-02-23T01:35:21;96796.69;;;9.26;54.05
46714;BME280;32445;51.376;10.874;2024-02-23T01:40:22;96833.69;;;9.14;53.85
46714;BME280;32445;51.376;10.874;2024-02-23T01:45:22;96834.47;;;9.02;52.68
46714;BME280;32445;51.376;10.874;2024-02-23T01:50:23;96844.47;;;8.93;52.47
46714;BME280;32445;51.376;10.874;2024-02-23T01:55:24;96858.50;;;8.89;53.27
46714;BME280;32445;51.376;10.874;2024-02-23T02:00:24;96878.66;;;8.84;54.62
46714;BME280;32445;51.376;10.874;2024-02-23T02:05:25;96888.53;;;8.77;54.68
46714;BME280;32445;51.376;10.874;2024-02-23T02:10:26;96896.69;;;8.71;55.50
46714;BME280;32445;51.376;10.874;2024-02-23T02:15:27;96903.31;;;8.61;55.04
46714;BME280;32445;51.376;10.874;2024-02-23T02:20:28;96913.94;;;8.56;55.15
46714;BME280;32445;51.376;10.874;2024-02-23T02:25:32;96905.44;;;8.54;56.00
46714;BME280;32445;51.376;10.874;2024-02-23T02:30:32;96945.00;;;8.40;55.34
46714;BME280;32445;51.376;10.874;2024-02-23T02:35:32;96948.19;;;8.29;55.08
46714;BME280;32445;51.376;10.874;2024-02-23T02:40:33;96951.81;;;8.27;55.26
46714;BME280;32445;51.376;10.874;2024-02-23T02:45:34;96969.72;;;8.30;55.54
46714;BME280;32445;51.376;10.874;2024-02-23T02:50:34;96986.22;;;8.27;55.61
46714;BME280;32445;51.376;10.874;2024-02-23T02:55:36;96987.72;;;8.31;56.35
46714;BME280;32445;51.376;10.874;2024-02-23T03:00:36;96988.00;;;8.27;56.68
46714;BME280;32445;51.376;10.874;2024-02-23T03:05:37;97004.09;;;8.16;56.50
46714;BME280;32445;51.376;10.874;2024-02-23T03:10:37;97000.19;;;8.09;55.87
46714;BME280;32445;51.376;10.874;2024-02-23T03:15:37;97021.38;;;8.00;55.25
46714;BME280;32445;51.376;10.874;2024-02-23T03:20:38;97030.63;;;7.88;54.78
46714;BME280;32445;51.376;10.874;2024-02-23T03:25:38;97037.38;;;7.90;55.11
46714;BME280;32445;51.376;10.874;2024-02-23T03:30:38;97036.72;;;7.87;55.17
46714;BME280;32445;51.376;10.874;2024-02-23T03:35:39;97035.56;;;7.92;55.88
46714;BME280;32445;51.376;10.874;2024-02-23T03:40:40;97043.53;;;7.88;55.52
46714;BME280;32445;51.376;10.874;2024-02-23T03:45:41;97056.16;;;7.78;55.54
46714;BME280;32445;51.376;10.874;2024-02-23T03:50:41;97070.28;;;7.71;55.72
46714;BME280;32445;51.376;10.874;2024-02-23T03:55:42;97098.69;;;7.71;56.13
46714;BME280;32445;51.376;10.874;2024-02-23T04:00:43;97107.63;;;7.65;55.94
46714;BME280;32445;51.376;10.874;2024-02-23T04:05:43;97112.25;;;7.58;56.10
46714;BME280;32445;51.376;10.874;2024-02-23T04:10:44;97124.81;;;7.49;56.49
46714;BME280;32445;51.376;10.874;2024-02-23T04:15:44;97131.63;;;7.50;56.20
46714;BME280;32445;51.376;10.874;2024-02-23T04:20:44;97144.25;;;7.38;56.31
46714;BME280;32445;51.376;10.874;2024-02-23T04:25:45;97153.22;;;7.31;55.98
46714;BME280;32445;51.376;10.874;2024-02-23T04:30:45;97154.53;;;7.22;55.77
46714;BME280;32445;51.376;10.874;2024-02-23T04:35:46;97168.56;;;7.17;55.76
46714;BME280;32445;51.376;10.874;2024-02-23T04:40:46;97167.66;;;7.00;56.17
46714;BME280;32445;51.376;10.874;2024-02-23T04:45:46;97184.31;;;6.93;55.79
46714;BME280;32445;51.376;10.874;2024-02-23T04:50:47;97194.50;;;6.96;56.24
46714;BME280;32445;51.376;10.874;2024-02-23T04:55:47;97184.72;;;6.85;56.30
46714;BME280;32445;51.376;10.874;2024-02-23T05:00:47;97190.47;;;6.90;56.43
46714;BME280;32445;51.376;10.874;2024-02-23T05:05:48;97202.06;;;6.82;56.53
46714;BME280;32445;51.376;10.874;2024-02-23T05:10:53;97217.00;;;6.75;56.60
46714;BME280;32445;51.376;10.874;2024-02-23T05:15:55;97221.84;;;6.64;56.68
46714;BME280;32445;51.376;10.874;2024-02-23T05:20:56;97251.22;;;6.60;56.45
46714;BME280;32445;51.376;10.874;2024-02-23T05:25:56;97262.59;;;6.55;56.95
46714;BME280;32445;51.376;10.874;2024-02-23T05:30:56;97267.09;;;6.50;56.75
46714;BME280;32445;51.376;10.874;2024-02-23T05:35:57;97258.69;;;6.47;56.70
46714;BME280;32445;51.376;10.874;2024-02-23T05:40:57;97268.22;;;6.45;56.85
46714;BME280;32445;51.376;10.874;2024-02-23T05:45:57;97270.25;;;6.38;56.92
46714;BME280;32445;51.376;10.874;2024-02-23T05:50:58;97269.69;;;6.31;56.51
46714;BME280;32445;51.376;10.874;2024-02-23T05:55:59;97277.56;;;6.28;56.52
46714;BME280;32445;51.376;10.874;2024-02-23T06:00:59;97285.56;;;6.22;56.36
46714;BME280;32445;51.376;10.874;2024-02-23T06:05:59;97283.94;;;6.19;56.50
46714;BME280;32445;51.376;10.874;2024-02-23T06:11:00;97302.13;;;6.16;56.50
46714;BME280;32445;51.376;10.874;2024-02-23T06:16:00;97315.97;;;6.14;56.30
46714;BME280;32445;51.376;10.874;2024-02-23T06:21:01;97300.91;;;6.04;56.42
46714;BME280;32445;51.376;10.874;2024-02-23T06:26:02;97298.00;;;6.12;56.14
46714;BME280;32445;51.376;10.874;2024-02-23T06:31:03;97303.31;;;6.28;56.08
46714;BME280;32445;51.376;10.874;2024-02-23T06:36:04;97313.28;;;6.36;55.95
46714;BME280;32445;51.376;10.874;2024-02-23T06:41:05;97331.44;;;6.53;55.79
46714;BME280;32445;51.376;10.874;2024-02-23T06:46:07;97349.88;;;6.63;55.35
46714;BME280;32445;51.376;10.874;2024-02-23T06:51:08;97361.28;;;6.38;55.55
46714;BME280;32445;51.376;10.874;2024-02-23T06:56:11;97368.47;;;6.51;55.58
46714;BME280;32445;51.376;10.874;2024-02-23T07:01:12;97368.19;;;6.57;55.32
46714;BME280;32445;51.376;10.874;2024-02-23T07:06:13;97375.28;;;6.52;55.39
46714;BME280;32445;51.376;10.874;2024-02-23T07:11:13;97391.16;;;6.43;55.61
46714;BME280;32445;51.376;10.874;2024-02-23T07:16:14;97401.34;;;6.46;55.64
46714;BME280;32445;51.376;10.874;2024-02-23T07:21:17;97415.97;;;6.24;55.92
46714;BME280;32445;51.376;10.874;2024-02-23T07:26:20;97431.88;;;6.14;55.92
46714;BME280;32445;51.376;10.874;2024-02-23T07:31:22;97437.03;;;6.14;55.90
46714;BME280;32445;51.376;10.874;2024-02-23T07:36:22;97447.53;;;6.09;55.95
46714;BME280;32445;51.376;10.874;2024-02-23T07:41:23;97456.09;;;6.10;56.06
46714;BME280;32445;51.376;10.874;2024-02-23T07:46:23;97450.94;;;6.10;56.16
46714;BME280;32445;51.376;10.874;2024-02-23T07:51:25;97463.19;;;6.25;55.69
46714;BME280;32445;51.376;10.874;2024-02-23T07:56:25;97463.88;;;6.29;55.59
46714;BME280;32445;51.376;10.874;2024-02-23T08:01:26;97471.06;;;6.43;55.45
46714;BME280;32445;51.376;10.874;2024-02-23T08:06:26;97467.03;;;6.56;55.36
46714;BME280;32445;51.376;10.874;2024-02-23T08:11:26;97452.16;;;6.63;55.19
46714;BME280;32445;51.376;10.874;2024-02-23T08:16:27;97451.47;;;6.59;55.47
46714;BME280;32445;51.376;10.874;2024-02-23T08:21:27;97453.84;;;6.64;55.23
46714;BME280;32445;51.376;10.874;2024-02-23T08:26:27;97448.25;;;6.54;55.26
46714;BME280;32445;51.376;10.874;2024-02-23T08:31:28;97425.56;;;6.41;55.70
46714;BME280;32445;51.376;10.874;2024-02-23T08:36:29;97424.47;;;6.47;55.62
46714;BME280;32445;51.376;10.874;2024-02-23T08:41:29;97429.88;;;6.41;55.51
46714;BME280;32445;51.376;10.874;2024-02-23T08:46:29;97437.69;;;6.39;55.61
46714;BME280;32445;51.376;10.874;2024-02-23T08:51:30;97432.31;;;6.44;55.58
46714;BME280;32445;51.376;10.874;2024-02-23T08:56:30;97440.50;;;6.54;55.37
46714;BME280;32445;51.376;10.874;2024-02-23T09:01:31;97440.31;;;6.58;55.20
46714;BME280;32445;51.376;10.874;2024-02-23T09:06:32;97453.72;;;6.67;55.16
46714;BME280;32445;51.376;10.874;2024-02-23T09:11:33;97456.59;;;6.80;55.30
46714;BME280;32445;51.376;10.874;2024-02-23T09:16:33;97462.50;;;6.82;55.15
46714;BME280;32445;51.376;10.874;2024-02-23T09:21:34;97471.13;;;7.01;54.94
46714;BME280;32445;51.376;10.874;2024-02-23T09:26:34;97469.88;;;7.10;54.71
46714;BME280;32445;51.376;10.874;2024-02-23T09:31:34;97467.16;;;7.13;54.41
46714;BME280;32445;51.376;10.874;2024-02-23T09:36:35;97487.72;;;7.15;54.30
46714;BME280;32445;51.376;10.874;2024-02-23T09:41:36;97463.31;;;7.22;54.47
46714;BME280;32445;51.376;10.874;2024-02-23T09:46:40;97462.06;;;7.31;54.30
46714;BME280;32445;51.376;10.874;2024-02-23T09:51:41;97462.13;;;7.29;54.41
46714;BME280;32445;51.376;10.874;2024-02-23T09:56:41;97482.38;;;7.38;54.29
46714;BME280;32445;51.376;10.874;2024-02-23T10:01:42;97481.13;;;7.47;53.46
46714;BME280;32445;51.376;10.874;2024-02-23T10:06:43;97487.16;;;7.46;53.54
46714;BME280;32445;51.376;10.874;2024-02-23T10:11:43;97474.47;;;7.41;53.24
46714;BME280;32445;51.376;10.874;2024-02-23T10:16:43;97486.31;;;7.65;52.71
46714;BME280;32445;51.376;10.874;2024-02-23T10:21:45;97493.66;;;7.74;53.51
46714;BME280;32445;51.376;10.874;2024-02-23T10:26:45;97519.03;;;7.83;52.82
46714;BME280;32445;51.376;10.874;2024-02-23T10:31:47;97523.88;;;7.91;53.62
46714;BME280;32445;51.376;10.874;2024-02-23T10:36:51;97518.63;;;7.92;53.18
46714;BME280;32445;51.376;10.874;2024-02-23T10:41:57;97507.75;;;8.03;52.82
46714;BME280;32445;51.376;10.874;2024-02-23T10:47:01;97504.88;;;8.09;52.57
46714;BME280;32445;51.376;10.874;2024-02-23T10:52:01;97506.22;;;8.18;52.78
46714;BME280;32445;51.376;10.874;2024-02-23T10:57:03;97512.28;;;8.17;53.35
46714;BME280;32445;51.376;10.874;2024-02-23T11:02:06;97524.22;;;8.20;52.91
46714;BME280;32445;51.376;10.874;2024-02-23T11:07:13;97516.00;;;8.29;52.04
46714;BME280;32445;51.376;10.874;2024-02-23T11:12:22;97525.19;;;8.17;52.34
46714;BME280;32445;51.376;10.874;2024-02-23T11:17:27;97527.94;;;8.14;52.75
46714;BME280;32445;51.376;10.874;2024-02-23T11:22:34;97516.75;;;8.13;52.50
46714;BME280;32445;51.376;10.874;2024-02-23T11:27:38;97514.16;;;8.13;51.96
46714;BME280;32445;51.376;10.874;2024-02-23T11:32:45;97509.84;;;8.14;52.60
46714;BME280;32445;51.376;10.874;2024-02-23T11:37:55;97506.25;;;8.17;52.34
46714;BME280;32445;51.376;10.874;2024-02-23T11:42:59;97524.34;;;8.17;52.44
46714;BME280;32445;51.376;10.874;2024-02-23T11:48:02;97524.66;;;8.28;53.17
46714;BME280;32445;51.376;10.874;2024-02-23T11:53:02;97532.88;;;8.36;52.43
46714;BME280;32445;51.376;10.874;2024-02-23T11:58:03;97542.41;;;8.36;52.96
46714;BME280;32445;51.376;10.874;2024-02-23T12:03:06;97549.03;;;8.41;52.60
46714;BME280;32445;51.376;10.874;2024-02-23T12:08:07;97531.50;;;8.29;51.58
46714;BME280;32445;51.376;10.874;2024-02-23T12:13:08;97530.69;;;8.28;51.95
46714;BME280;32445;51.376;10.874;2024-02-23T12:18:10;97533.72;;;8.37;51.95
46714;BME280;32445;51.376;10.874;2024-02-23T12:23:11;97518.34;;;8.34;52.67
46714;BME280;32445;51.376;10.874;2024-02-23T12:28:18;97519.81;;;8.39;52.55
46714;BME280;32445;51.376;10.874;2024-02-23T12:33:20;97524.66;;;8.28;51.43
46714;BME280;32445;51.376;10.874;2024-02-23T12:38:20;97525.53;;;8.28;52.15
46714;BME280;32445;51.376;10.874;2024-02-23T12:43:21;97521.63;;;8.20;51.39
46714;BME280;32445;51.376;10.874;2024-02-23T12:48:24;97510.25;;;8.24;52.01
46714;BME280;32445;51.376;10.874;2024-02-23T12:53:38;97514.47;;;8.42;52.07
46714;BME280;32445;51.376;10.874;2024-02-23T12:58:41;97501.63;;;8.41;52.05
46714;BME280;32445;51.376;10.874;2024-02-23T13:03:42;97516.13;;;8.45;51.61
46714;BME280;32445;51.376;10.874;2024-02-23T13:08:42;97509.72;;;8.52;52.13
46714;BME280;32445;51.376;10.874;2024-02-23T13:13:43;97529.13;;;8.61;52.08
46714;BME280;32445;51.376;10.874;2024-02-23T13:18:46;97514.75;;;8.73;51.88
46714;BME280;32445;51.376;10.874;2024-02-23T13:23:47;97515.47;;;8.92;51.93
46714;BME280;32445;51.376;10.874;2024-02-23T13:28:47;97505.91;;;8.94;51.87
46714;BME280;32445;51.376;10.874;2024-02-23T13:33:47;97503.50;;;9.07;51.46
46714;BME280;32445;51.376;10.874;2024-02-23T13:38:48;97503.72;;;9.03;51.81
46714;BME280;32445;51.376;10.874;2024-02-23T13:43:48;97500.13;;;9.23;51.20
46714;BME280;32445;51.376;10.874;2024-02-23T13:49:05;97502.28;;;9.30;51.59
46714;BME280;32445;51.376;10.874;2024-02-23T13:54:06;97517.03;;;9.12;50.46
46714;BME280;32445;51.376;10.874;2024-02-23T13:59:06;97500.59;;;9.13;51.39
46714;BME280;32445;51.376;10.874;2024-02-23T14:04:07;97505.44;;;9.20;51.29
46714;BME280;32445;51.376;10.874;2024-02-23T14:09:08;97519.16;;;9.22;51.54
46714;BME280;32445;51.376;10.874;2024-02-23T14:14:09;97514.44;;;9.46;51.36
46714;BME280;32445;51.376;10.874;2024-02-23T14:19:09;97507.31;;;9.49;50.20
46714;BME280;32445;51.376;10.874;2024-02-23T14:24:10;97522.84;;;9.33;49.27
46714;BME280;32445;51.376;10.874;2024-02-23T14:29:10;97535.44;;;9.24;50.03
46714;BME280;32445;51.376;10.874;2024-02-23T14:34:10;97532.47;;;9.14;49.86
46714;BME280;32445;51.376;10.874;2024-02-23T14:39:11;97552.53;;;9.10;49.09
46714;BME280;32445;51.376;10.874;2024-02-23T14:44:12;97525.13;;;9.06;48.99
46714;BME280;32445;51.376;10.874;2024-02-23T14:49:13;97516.41;;;9.25;50.06
46714;BME280;32445;51.376;10.874;2024-02-23T14:54:14;97506.88;;;9.25;50.29
46714;BME280;32445;51.376;10.874;2024-02-23T14:59:14;97515.69;;;9.39;50.69
46714;BME280;32445;51.376;10.874;2024-02-23T15:04:15;97523.13;;;9.61;50.55
46714;BME280;32445;51.376;10.874;2024-02-23T15:09:15;97516.59;;;9.69;50.40
46714;BME280;32445;51.376;10.874;2024-02-23T15:14:15;97509.59;;;9.72;50.84
46714;BME280;32445;51.376;10.874;2024-02-23T15:19:16;97495.06;;;9.69;50.59
46714;BME280;32445;51.376;10.874;2024-02-23T15:24:16;97481.59;;;9.62;50.83
46714;BME280;32445;51.376;10.874;2024-02-23T15:29:18;97484.09;;;9.64;51.05
46714;BME280;32445;51.376;10.874;2024-02-23T15:34:18;97473.22;;;9.89;50.95
46714;BME280;32445;51.376;10.874;2024-02-23T15:39:18;97488.75;;;10.05;50.95
46714;BME280;32445;51.376;10.874;2024-02-23T15:44:19;97494.84;;;10.04;50.63
46714;BME280;32445;51.376;10.874;2024-02-23T15:49:19;97515.00;;;10.15;50.60
46714;BME280;32445;51.376;10.874;2024-02-23T15:54:20;97527.88;;;10.16;50.83
46714;BME280;32445;51.376;10.874;2024-02-23T15:59:21;97545.84;;;10.19;50.83
46714;BME280;32445;51.376;10.874;2024-02-23T16:04:24;97552.34;;;10.27;50.94
46714;BME280;32445;51.376;10.874;2024-02-23T16:09:24;97543.47;;;10.31;50.98
46714;BME280;32445;51.376;10.874;2024-02-23T16:14:24;97535.97;;;10.26;51.11
46714;BME280;32445;51.376;10.874;2024-02-23T16:19:25;97533.56;;;10.07;51.11
46714;BME280;32445;51.376;10.874;2024-02-23T16:24:25;97546.19;;;10.13;51.11
46714;BME280;32445;51.376;10.874;2024-02-23T16:29:25;97552.38;;;10.11;51.09
46714;BME280;32445;51.376;10.874;2024-02-23T16:34:26;97561.59;;;10.00;51.31
46714;BME280;32445;51.376;10.874;2024-02-23T16:39:26;97570.28;;;9.99;51.43
46714;BME280;32445;51.376;10.874;2024-02-23T16:44:27;97580.47;;;9.86;51.31
46714;BME280;32445;51.376;10.874;2024-02-23T16:49:27;97581.28;;;9.71;51.61
46714;BME280;32445;51.376;10.874;2024-02-23T16:54:27;97576.28;;;9.68;51.62
46714;BME280;32445;51.376;10.874;2024-02-23T16:59:28;97586.56;;;9.69;51.53
46714;BME280;32445;51.376;10.874;2024-02-23T17:04:28;97588.50;;;9.66;51.66
46714;BME280;32445;51.376;10.874;2024-02-23T17:09:28;97594.91;;;9.59;51.78
46714;BME280;32445;51.376;10.874;2024-02-23T17:14:28;97578.25;;;9.47;51.78
46714;BME280;32445;51.376;10.874;2024-02-23T17:19:29;97574.72;;;9.32;51.81
46714;BME280;32445;51.376;10.874;2024-02-23T17:24:29;97566.41;;;8.92;52.28
46714;BME280;32445;51.376;10.874;2024-02-23T17:29:30;97583.16;;;8.85;52.34
46714;BME280;32445;51.376;10.874;2024-02-23T17:34:31;97588.72;;;8.77;52.46
46714;BME280;32445;51.376;10.874;2024-02-23T17:39:32;97612.28;;;8.88;51.93
46714;BME280;32445;51.376;10.874;2024-02-23T17:44:32;97602.38;;;8.96;51.93
46714;BME280;32445;51.376;10.874;2024-02-23T17:49:33;97606.59;;;8.99;51.75
46714;BME280;32445;51.376;10.874;2024-02-23T17:54:33;97604.31;;;8.93;51.58
46714;BME280;32445;51.376;10.874;2024-02-23T17:59:33;97604.59;;;8.87;51.35
46714;BME280;32445;51.376;10.874;2024-02-23T18:04:34;97595.47;;;8.79;51.72
46714;BME280;32445;51.376;10.874;2024-02-23T18:09:34;97597.28;;;8.60;51.94
46714;BME280;32445;51.376;10.874;2024-02-23T18:14:34;97608.22;;;8.47;52.26
46714;BME280;32445;51.376;10.874;2024-02-23T18:19:35;97619.03;;;8.37;52.14
46714;BME280;32445;51.376;10.874;2024-02-23T18:24:37;97626.03;;;8.35;52.04
46714;BME280;32445;51.376;10.874;2024-02-23T18:29:37;97632.31;;;8.29;52.16
46714;BME280;32445;51.376;10.874;2024-02-23T18:34:38;97628.91;;;8.28;52.00
46714;BME280;32445;51.376;10.874;2024-02-23T18:39:39;97618.91;;;8.21;52.01
46714;BME280;32445;51.376;10.874;2024-02-23T18:44:39;97611.47;;;8.14;51.89
46714;BME280;32445;51.376;10.874;2024-02-23T18:49:40;97614.50;;;8.05;52.11
46714;BME280;32445;51.376;10.874;2024-02-23T18:54:40;97633.53;;;8.03;52.13
46714;BME280;32445;51.376;10.874;2024-02-23T18:59:41;97643.44;;;7.93;52.16
46714;BME280;32445;51.376;10.874;2024-02-23T19:04:41;97629.00;;;7.89;52.03
46714;BME280;32445;51.376;10.874;2024-02-23T19:09:41;97629.34;;;7.81;52.04
46714;BME280;32445;51.376;10.874;2024-02-23T19:14:42;97627.03;;;7.75;51.87
46714;BME280;32445;51.376;10.874;2024-02-23T19:19:42;97622.91;;;7.71;51.96
46714;BME280;32445;51.376;10.874;2024-02-23T19:24:42;97631.72;;;7.67;52.04
46714;BME280;32445;51.376;10.874;2024-02-23T19:29:43;97624.28;;;7.59;52.00
46714;BME280;32445;51.376;10.874;2024-02-23T19:34:43;97613.41;;;7.52;52.09
46714;BME280;32445;51.376;10.874;2024-02-23T19:39:44;97614.44;;;7.48;51.87
46714;BME280;32445;51.376;10.874;2024-02-23T19:44:45;97620.84;;;7.39;51.91
46714;BME280;32445;51.376;10.874;2024-02-23T19:49:45;97624.41;;;7.16;52.20
46714;BME280;32445;51.376;10.874;2024-02-23T19:54:46;97625.97;;;7.00;52.53
46714;BME280;32445;51.376;10.874;2024-02-23T19:59:46;97620.47;;;6.87;52.58
46714;BME280;32445;51.376;10.874;2024-02-23T20:04:46;97612.34;;;6.75;52.98
46714;BME280;32445;51.376;10.874;2024-02-23T20:09:51;97597.34;;;6.63;53.05
46714;BME280;32445;51.376;10.874;2024-02-23T20:14:51;97603.50;;;6.61;52.98
46714;BME280;32445;51.376;10.874;2024-02-23T20:19:51;97603.16;;;6.48;52.90
46714;BME280;32445;51.376;10.874;2024-02-23T20:24:52;97601.94;;;6.34;53.31
46714;BME280;32445;51.376;10.874;2024-02-23T20:29:53;97594.16;;;6.36;53.15
46714;BME280;32445;51.376;10.874;2024-02-23T20:34:53;97592.25;;;6.41;53.02
46714;BME280;32445;51.376;10.874;2024-02-23T20:39:54;97580.31;;;6.38;53.05
46714;BME280;32445;51.376;10.874;2024-02-23T20:44:54;97593.53;;;6.31;53.04
46714;BME280;32445;51.376;10.874;2024-02-23T20:49:55;97606.88;;;6.40;52.80
46714;BME280;32445;51.376;10.874;2024-02-23T20:54:55;97612.06;;;6.39;52.83
46714;BME280;32445;51.376;10.874;2024-02-23T20:59:55;97616.66;;;6.32;52.82
46714;BME280;32445;51.376;10.874;2024-02-23T21:04:57;97622.81;;;6.28;52.81
46714;BME280;32445;51.376;10.874;2024-02-23T21:09:58;97626.34;;;6.26;52.57
46714;BME280;32445;51.376;10.874;2024-02-23T21:14:58;97633.06;;;6.08;53.00
46714;BME280;32445;51.376;10.874;2024-02-23T21:19:59;97627.34;;;5.99;53.21
46714;BME280;32445;51.376;10.874;2024-02-23T21:24:59;97635.13;;;5.98;53.18
46714;BME280;32445;51.376;10.874;2024-02-23T21:30:00;97637.41;;;6.05;53.07
46714;BME280;32445;51.376;10.874;2024-02-23T21:35:01;97631.91;;;6.15;52.75
46714;BME280;32445;51.376;10.874;2024-02-23T21:40:01;97632.56;;;6.20;52.28
46714;BME280;32445;51.376;10.874;2024-02-23T21:45:02;97630.00;;;6.20;52.42
46714;BME280;32445;51.376;10.874;2024-02-23T21:50:02;97631.69;;;6.21;52.31
46714;BME280;32445;51.376;10.874;2024-02-23T21:55:07;97636.97;;;6.18;52.20
46714;BME280;32445;51.376;10.874;2024-02-23T22:00:08;97646.66;;;6.11;52.19
46714;BME280;32445;51.376;10.874;2024-02-23T22:05:08;97648.50;;;6.08;52.06
46714;BME280;32445;51.376;10.874;2024-02-23T22:10:09;97659.94;;;6.00;52.04
46714;BME280;32445;51.376;10.874;2024-02-23T22:15:10;97654.19;;;5.92;52.25
46714;BME280;32445;51.376;10.874;2024-02-23T22:20:10;97642.50;;;5.83;52.39
46714;BME280;32445;51.376;10.874;2024-02-23T22:25:11;97652.22;;;5.75;52.24
46714;BME280;32445;51.376;10.874;2024-02-23T22:30:11;97644.81;;;5.66;52.22
46714;BME280;32445;51.376;10.874;2024-02-23T22:35:12;97637.41;;;5.58;52.44
46714;BME280;32445;51.376;10.874;2024-02-23T22:40:14;97631.63;;;5.51;52.40
46714;BME280;32445;51.376;10.874;2024-02-23T22:45:14;97631.91;;;5.44;52.34
46714;BME280;32445;51.376;10.874;2024-02-23T22:50:15;97635.63;;;5.35;52.55
46714;BME280;32445;51.376;10.874;2024-02-23T22:55:16;97638.50;;;5.26;52.52
46714;BME280;32445;51.376;10.874;2024-02-23T23:00:16;97639.72;;;5.15;52.37
46714;BME280;32445;51.376;10.874;2024-02-23T23:05:17;97633.13;;;5.08;52.51
46714;BME280;32445;51.376;10.874;2024-02-23T23:10:18;97630.88;;;4.99;52.40
46714;BME280;32445;51.376;10.874;2024-02-23T23:15:18;97636.25;;;4.91;52.58
46714;BME280;32445;51.376;10.874;2024-02-23T23:20:18;97643.41;;;4.83;52.47
46714;BME280;32445;51.376;10.874;2024-02-23T23:25:19;97640.22;;;4.75;52.45
46714;BME280;32445;51.376;10.874;2024-02-23T23:30:20;97640.56;;;4.64;52.53
46714;BME280;32445;51.376;10.874;2024-02-23T23:35:20;97644.22;;;4.57;52.47
46714;BME280;32445;51.376;10.874;2024-02-23T23:40:21;97651.34;;;4.48;52.68
46714;BME280;32445;51.376;10.874;2024-02-23T23:45:21;97651.56;;;4.41;52.54
46714;BME280;32445;51.376;10.874;2024-02-23T23:50:22;97658.63;;;4.34;52.57
46714;BME280;32445;51.376;10.874;2024-02-23T23:55:23;97663.13;;;4.27;52.78
